sensor_id;sensor_type;location;lat;lon;timestamp;P1;durP1;ratioP1;P2;durP2;ratioP2
52798;SDS011;38667;42.872;74.622;2023-12-28T00:01:45;35.60;;;11.10;;
52798;SDS011;38667;42.872;74.622;2023-12-28T00:04:11;29.43;;;11.57;;
52798;SDS011;38667;42.872;74.622;2023-12-28T00:06:38;39.27;;;15.23;;
52798;SDS011;38667;42.872;74.622;2023-12-28T00:09:04;37.00;;;14.30;;
52798;SDS011;38667;42.872;74.622;2023-12-28T00:11:30;40.20;;;15.13;;
52798;SDS011;38667;42.872;74.622;2023-12-28T00:13:57;34.53;;;12.83;;
52798;SDS011;38667;42.872;74.622;2023-12-28T00:16:23;32.70;;;11.30;;
52798;SDS011;38667;42.872;74.622;2023-12-28T00:18:51;34.17;;;12.70;;
52798;SDS011;38667;42.872;74.622;2023-12-28T00:21:17;35.93;;;13.00;;
52798;SDS011;38667;42.872;74.622;2023-12-28T00:23:44;39.97;;;12.73;;
52798;SDS011;38667;42.872;74.622;2023-12-28T00:26:10;42.73;;;14.97;;
52798;SDS011;38667;42.872;74.622;2023-12-28T00:28:36;42.87;;;19.27;;
52798;SDS011;38667;42.872;74.622;2023-12-28T00:31:03;34.43;;;13.13;;
52798;SDS011;38667;42.872;74.622;2023-12-28T00:33:29;35.07;;;12.57;;
52798;SDS011;38667;42.872;74.622;2023-12-28T00:35:57;36.03;;;13.00;;
52798;SDS011;38667;42.872;74.622;2023-12-28T00:38:23;37.40;;;13.23;;
52798;SDS011;38667;42.872;74.622;2023-12-28T00:40:50;41.50;;;14.10;;
52798;SDS011;38667;42.872;74.622;2023-12-28T00:43:16;39.70;;;14.67;;
52798;SDS011;38667;42.872;74.622;2023-12-28T00:45:42;31.10;;;13.37;;
52798;SDS011;38667;42.872;74.622;2023-12-28T00:48:09;38.80;;;14.27;;
52798;SDS011;38667;42.872;74.622;2023-12-28T00:50:35;42.43;;;16.20;;
52798;SDS011;38667;42.872;74.622;2023-12-28T00:53:03;40.87;;;16.57;;
52798;SDS011;38667;42.872;74.622;2023-12-28T00:55:29;50.73;;;16.77;;
52798;SDS011;38667;42.872;74.622;2023-12-28T00:57:56;47.10;;;14.63;;
52798;SDS011;38667;42.872;74.622;2023-12-28T01:00:22;31.60;;;12.43;;
52798;SDS011;38667;42.872;74.622;2023-12-28T01:02:48;57.83;;;17.10;;
52798;SDS011;38667;42.872;74.622;2023-12-28T01:05:15;99.57;;;24.40;;
52798;SDS011;38667;42.872;74.622;2023-12-28T01:07:41;177.73;;;36.50;;
52798;SDS011;38667;42.872;74.622;2023-12-28T01:10:09;116.03;;;32.23;;
52798;SDS011;38667;42.872;74.622;2023-12-28T01:12:35;159.83;;;37.93;;
52798;SDS011;38667;42.872;74.622;2023-12-28T01:15:02;153.83;;;37.63;;
52798;SDS011;38667;42.872;74.622;2023-12-28T01:17:28;116.90;;;32.97;;
52798;SDS011;38667;42.872;74.622;2023-12-28T01:19:55;62.80;;;24.50;;
52798;SDS011;38667;42.872;74.622;2023-12-28T01:22:21;64.37;;;24.63;;
52798;SDS011;38667;42.872;74.622;2023-12-28T01:24:47;68.20;;;25.93;;
52798;SDS011;38667;42.872;74.622;2023-12-28T01:27:15;49.50;;;24.30;;
52798;SDS011;38667;42.872;74.622;2023-12-28T01:29:42;52.17;;;24.70;;
52798;SDS011;38667;42.872;74.622;2023-12-28T01:32:08;35.43;;;18.13;;
52798;SDS011;38667;42.872;74.622;2023-12-28T01:34:34;42.53;;;16.83;;
52798;SDS011;38667;42.872;74.622;2023-12-28T01:37:01;53.53;;;21.40;;
52798;SDS011;38667;42.872;74.622;2023-12-28T01:39:27;41.83;;;20.20;;
52798;SDS011;38667;42.872;74.622;2023-12-28T01:41:53;41.83;;;20.40;;
52798;SDS011;38667;42.872;74.622;2023-12-28T01:44:21;46.00;;;19.97;;
52798;SDS011;38667;42.872;74.622;2023-12-28T01:46:48;54.67;;;24.70;;
52798;SDS011;38667;42.872;74.622;2023-12-28T01:49:15;222.20;;;69.80;;
52798;SDS011;38667;42.872;74.622;2023-12-28T01:51:41;191.47;;;59.87;;
52798;SDS011;38667;42.872;74.622;2023-12-28T01:54:09;130.17;;;44.37;;
52798;SDS011;38667;42.872;74.622;2023-12-28T01:56:35;66.23;;;26.07;;
52798;SDS011;38667;42.872;74.622;2023-12-28T01:59:02;59.83;;;25.30;;
52798;SDS011;38667;42.872;74.622;2023-12-28T02:01:30;49.00;;;23.50;;
52798;SDS011;38667;42.872;74.622;2023-12-28T02:03:57;60.93;;;25.60;;
52798;SDS011;38667;42.872;74.622;2023-12-28T02:06:24;46.93;;;22.53;;
52798;SDS011;38667;42.872;74.622;2023-12-28T02:08:50;49.80;;;21.93;;
52798;SDS011;38667;42.872;74.622;2023-12-28T02:11:17;51.40;;;24.70;;
52798;SDS011;38667;42.872;74.622;2023-12-28T02:13:44;61.73;;;28.20;;
52798;SDS011;38667;42.872;74.622;2023-12-28T02:16:12;59.53;;;28.97;;
52798;SDS011;38667;42.872;74.622;2023-12-28T02:18:44;64.77;;;29.33;;
52798;SDS011;38667;42.872;74.622;2023-12-28T02:21:15;68.63;;;30.00;;
52798;SDS011;38667;42.872;74.622;2023-12-28T02:23:46;62.13;;;30.27;;
52798;SDS011;38667;42.872;74.622;2023-12-28T02:26:14;60.57;;;27.33;;
52798;SDS011;38667;42.872;74.622;2023-12-28T02:28:40;54.77;;;21.67;;
52798;SDS011;38667;42.872;74.622;2023-12-28T02:31:07;48.53;;;21.60;;
52798;SDS011;38667;42.872;74.622;2023-12-28T02:33:41;41.17;;;19.17;;
52798;SDS011;38667;42.872;74.622;2023-12-28T02:36:13;36.83;;;17.77;;
52798;SDS011;38667;42.872;74.622;2023-12-28T02:38:43;47.77;;;20.63;;
52798;SDS011;38667;42.872;74.622;2023-12-28T02:41:11;52.93;;;23.23;;
52798;SDS011;38667;42.872;74.622;2023-12-28T02:43:40;50.30;;;23.20;;
52798;SDS011;38667;42.872;74.622;2023-12-28T02:46:06;57.27;;;24.67;;
52798;SDS011;38667;42.872;74.622;2023-12-28T02:48:32;53.97;;;25.03;;
52798;SDS011;38667;42.872;74.622;2023-12-28T02:50:59;63.93;;;27.53;;
52798;SDS011;38667;42.872;74.622;2023-12-28T02:53:25;49.37;;;25.33;;
52798;SDS011;38667;42.872;74.622;2023-12-28T02:55:51;55.57;;;25.80;;
52798;SDS011;38667;42.872;74.622;2023-12-28T02:58:18;56.63;;;28.17;;
52798;SDS011;38667;42.872;74.622;2023-12-28T03:00:46;54.10;;;26.87;;
52798;SDS011;38667;42.872;74.622;2023-12-28T03:03:12;55.93;;;28.30;;
52798;SDS011;38667;42.872;74.622;2023-12-28T03:05:38;56.40;;;26.13;;
52798;SDS011;38667;42.872;74.622;2023-12-28T03:08:05;56.23;;;26.63;;
52798;SDS011;38667;42.872;74.622;2023-12-28T03:10:31;48.70;;;23.63;;
52798;SDS011;38667;42.872;74.622;2023-12-28T03:12:57;50.53;;;23.40;;
52798;SDS011;38667;42.872;74.622;2023-12-28T03:15:24;48.30;;;23.90;;
52798;SDS011;38667;42.872;74.622;2023-12-28T03:17:52;55.03;;;27.00;;
52798;SDS011;38667;42.872;74.622;2023-12-28T03:20:18;55.40;;;28.83;;
52798;SDS011;38667;42.872;74.622;2023-12-28T03:22:45;47.80;;;24.50;;
52798;SDS011;38667;42.872;74.622;2023-12-28T03:25:11;40.20;;;21.60;;
52798;SDS011;38667;42.872;74.622;2023-12-28T03:27:39;47.20;;;26.77;;
52798;SDS011;38667;42.872;74.622;2023-12-28T03:30:06;49.40;;;24.37;;
52798;SDS011;38667;42.872;74.622;2023-12-28T03:32:33;44.63;;;25.00;;
52798;SDS011;38667;42.872;74.622;2023-12-28T03:35:01;51.10;;;25.13;;
52798;SDS011;38667;42.872;74.622;2023-12-28T03:37:27;41.70;;;23.73;;
52798;SDS011;38667;42.872;74.622;2023-12-28T03:39:54;36.30;;;20.23;;
52798;SDS011;38667;42.872;74.622;2023-12-28T03:42:20;27.47;;;15.60;;
52798;SDS011;38667;42.872;74.622;2023-12-28T03:44:47;24.83;;;14.00;;
52798;SDS011;38667;42.872;74.622;2023-12-28T03:47:13;22.63;;;11.13;;
52798;SDS011;38667;42.872;74.622;2023-12-28T03:49:39;16.53;;;8.77;;
52798;SDS011;38667;42.872;74.622;2023-12-28T03:52:07;17.53;;;10.50;;
52798;SDS011;38667;42.872;74.622;2023-12-28T03:54:33;20.43;;;11.57;;
52798;SDS011;38667;42.872;74.622;2023-12-28T03:57:00;22.80;;;12.07;;
52798;SDS011;38667;42.872;74.622;2023-12-28T03:59:26;23.47;;;11.83;;
52798;SDS011;38667;42.872;74.622;2023-12-28T04:01:52;19.73;;;10.10;;
52798;SDS011;38667;42.872;74.622;2023-12-28T04:04:19;27.93;;;13.03;;
52798;SDS011;38667;42.872;74.622;2023-12-28T04:06:45;20.73;;;10.93;;
52798;SDS011;38667;42.872;74.622;2023-12-28T04:09:13;28.53;;;11.47;;
52798;SDS011;38667;42.872;74.622;2023-12-28T04:11:40;19.67;;;9.73;;
52798;SDS011;38667;42.872;74.622;2023-12-28T04:14:06;16.37;;;9.77;;
52798;SDS011;38667;42.872;74.622;2023-12-28T04:16:33;16.37;;;9.47;;
52798;SDS011;38667;42.872;74.622;2023-12-28T04:18:59;16.00;;;8.63;;
52798;SDS011;38667;42.872;74.622;2023-12-28T04:21:25;16.93;;;8.37;;
52798;SDS011;38667;42.872;74.622;2023-12-28T04:23:52;17.97;;;9.20;;
52798;SDS011;38667;42.872;74.622;2023-12-28T04:26:19;18.63;;;10.40;;
52798;SDS011;38667;42.872;74.622;2023-12-28T04:28:46;17.30;;;9.53;;
52798;SDS011;38667;42.872;74.622;2023-12-28T04:31:12;15.63;;;8.13;;
52798;SDS011;38667;42.872;74.622;2023-12-28T04:33:39;32.30;;;14.10;;
52798;SDS011;38667;42.872;74.622;2023-12-28T04:36:05;41.00;;;18.10;;
52798;SDS011;38667;42.872;74.622;2023-12-28T04:38:32;40.03;;;16.00;;
52798;SDS011;38667;42.872;74.622;2023-12-28T04:40:58;10.70;;;6.30;;
52798;SDS011;38667;42.872;74.622;2023-12-28T04:43:27;11.37;;;5.43;;
52798;SDS011;38667;42.872;74.622;2023-12-28T04:45:55;12.13;;;6.17;;
52798;SDS011;38667;42.872;74.622;2023-12-28T04:48:22;13.13;;;7.43;;
52798;SDS011;38667;42.872;74.622;2023-12-28T04:50:48;17.43;;;8.60;;
52798;SDS011;38667;42.872;74.622;2023-12-28T04:53:14;16.53;;;8.00;;
52798;SDS011;38667;42.872;74.622;2023-12-28T04:55:41;19.13;;;9.33;;
52798;SDS011;38667;42.872;74.622;2023-12-28T04:58:07;19.00;;;9.23;;
52798;SDS011;38667;42.872;74.622;2023-12-28T05:00:37;16.13;;;9.30;;
52798;SDS011;38667;42.872;74.622;2023-12-28T05:03:04;20.20;;;10.57;;
52798;SDS011;38667;42.872;74.622;2023-12-28T05:05:30;16.40;;;8.47;;
52798;SDS011;38667;42.872;74.622;2023-12-28T05:07:56;19.25;;;8.07;;
52798;SDS011;38667;42.872;74.622;2023-12-28T05:10:23;23.13;;;9.75;;
52798;SDS011;38667;42.872;74.622;2023-12-28T05:12:49;28.05;;;12.05;;
52798;SDS011;38667;42.872;74.622;2023-12-28T05:15:15;23.27;;;10.90;;
52798;SDS011;38667;42.872;74.622;2023-12-28T05:17:43;33.80;;;11.20;;
52798;SDS011;38667;42.872;74.622;2023-12-28T05:20:10;33.80;;;11.82;;
52798;SDS011;38667;42.872;74.622;2023-12-28T05:22:36;23.60;;;11.40;;
52798;SDS011;38667;42.872;74.622;2023-12-28T05:25:03;20.55;;;8.93;;
52798;SDS011;38667;42.872;74.622;2023-12-28T05:27:30;19.13;;;9.32;;
52798;SDS011;38667;42.872;74.622;2023-12-28T05:29:56;18.58;;;9.02;;
52798;SDS011;38667;42.872;74.622;2023-12-28T05:32:22;26.80;;;8.75;;
52798;SDS011;38667;42.872;74.622;2023-12-28T05:34:50;16.88;;;7.45;;
52798;SDS011;38667;42.872;74.622;2023-12-28T05:37:17;26.15;;;8.00;;
52798;SDS011;38667;42.872;74.622;2023-12-28T05:39:43;23.95;;;10.82;;
52798;SDS011;38667;42.872;74.622;2023-12-28T05:42:09;19.17;;;6.70;;
52798;SDS011;38667;42.872;74.622;2023-12-28T05:44:36;15.50;;;6.60;;
52798;SDS011;38667;42.872;74.622;2023-12-28T05:47:02;11.90;;;5.78;;
52798;SDS011;38667;42.872;74.622;2023-12-28T05:49:28;11.73;;;5.80;;
52798;SDS011;38667;42.872;74.622;2023-12-28T05:51:56;16.17;;;7.82;;
52798;SDS011;38667;42.872;74.622;2023-12-28T05:54:23;15.40;;;6.80;;
52798;SDS011;38667;42.872;74.622;2023-12-28T05:56:49;20.58;;;6.40;;
52798;SDS011;38667;42.872;74.622;2023-12-28T05:59:15;22.33;;;8.40;;
52798;SDS011;38667;42.872;74.622;2023-12-28T06:01:42;15.15;;;7.50;;
52798;SDS011;38667;42.872;74.622;2023-12-28T06:04:09;14.75;;;7.82;;
52798;SDS011;38667;42.872;74.622;2023-12-28T06:06:35;15.45;;;6.85;;
52798;SDS011;38667;42.872;74.622;2023-12-28T06:09:03;20.10;;;7.65;;
52798;SDS011;38667;42.872;74.622;2023-12-28T06:11:29;13.80;;;5.38;;
52798;SDS011;38667;42.872;74.622;2023-12-28T06:13:56;17.55;;;6.93;;
52798;SDS011;38667;42.872;74.622;2023-12-28T06:16:22;18.55;;;6.05;;
52798;SDS011;38667;42.872;74.622;2023-12-28T06:18:49;15.68;;;6.72;;
52798;SDS011;38667;42.872;74.622;2023-12-28T06:21:15;17.05;;;7.82;;
52798;SDS011;38667;42.872;74.622;2023-12-28T06:23:41;25.58;;;7.97;;
52798;SDS011;38667;42.872;74.622;2023-12-28T06:26:09;14.70;;;7.47;;
52798;SDS011;38667;42.872;74.622;2023-12-28T06:28:36;11.60;;;6.00;;
52798;SDS011;38667;42.872;74.622;2023-12-28T06:31:03;14.57;;;6.50;;
52798;SDS011;38667;42.872;74.622;2023-12-28T06:33:29;15.25;;;5.70;;
52798;SDS011;38667;42.872;74.622;2023-12-28T06:35:55;14.98;;;5.38;;
52798;SDS011;38667;42.872;74.622;2023-12-28T06:38:22;16.15;;;5.72;;
52798;SDS011;38667;42.872;74.622;2023-12-28T06:40:48;10.57;;;6.00;;
52798;SDS011;38667;42.872;74.622;2023-12-28T06:43:16;17.02;;;6.22;;
52798;SDS011;38667;42.872;74.622;2023-12-28T06:45:42;16.85;;;7.50;;
52798;SDS011;38667;42.872;74.622;2023-12-28T06:48:09;19.67;;;6.65;;
52798;SDS011;38667;42.872;74.622;2023-12-28T06:50:35;14.27;;;6.30;;
52798;SDS011;38667;42.872;74.622;2023-12-28T06:53:01;16.38;;;7.63;;
52798;SDS011;38667;42.872;74.622;2023-12-28T06:55:28;13.18;;;4.95;;
52798;SDS011;38667;42.872;74.622;2023-12-28T06:57:54;13.25;;;4.70;;
52798;SDS011;38667;42.872;74.622;2023-12-28T07:00:22;14.82;;;5.68;;
52798;SDS011;38667;42.872;74.622;2023-12-28T07:02:48;13.52;;;5.85;;
52798;SDS011;38667;42.872;74.622;2023-12-28T07:05:14;10.30;;;4.75;;
52798;SDS011;38667;42.872;74.622;2023-12-28T07:07:41;10.40;;;5.15;;
52798;SDS011;38667;42.872;74.622;2023-12-28T07:10:08;14.25;;;4.97;;
52798;SDS011;38667;42.872;74.622;2023-12-28T07:12:34;13.60;;;4.88;;
52798;SDS011;38667;42.872;74.622;2023-12-28T07:15:00;6.88;;;4.18;;
52798;SDS011;38667;42.872;74.622;2023-12-28T07:17:28;13.30;;;5.88;;
52798;SDS011;38667;42.872;74.622;2023-12-28T07:19:55;9.85;;;4.18;;
52798;SDS011;38667;42.872;74.622;2023-12-28T07:22:21;14.13;;;5.20;;
52798;SDS011;38667;42.872;74.622;2023-12-28T07:24:47;20.90;;;7.50;;
52798;SDS011;38667;42.872;74.622;2023-12-28T07:27:14;11.27;;;5.07;;
52798;SDS011;38667;42.872;74.622;2023-12-28T07:29:40;13.63;;;4.80;;
52798;SDS011;38667;42.872;74.622;2023-12-28T07:32:06;16.63;;;6.32;;
52798;SDS011;38667;42.872;74.622;2023-12-28T07:34:34;9.38;;;3.90;;
52798;SDS011;38667;42.872;74.622;2023-12-28T07:37:01;15.88;;;3.47;;
52798;SDS011;38667;42.872;74.622;2023-12-28T07:39:27;14.20;;;3.63;;
52798;SDS011;38667;42.872;74.622;2023-12-28T07:41:53;9.20;;;3.20;;
52798;SDS011;38667;42.872;74.622;2023-12-28T07:44:20;17.10;;;3.72;;
52798;SDS011;38667;42.872;74.622;2023-12-28T07:46:46;17.70;;;4.38;;
52798;SDS011;38667;42.872;74.622;2023-12-28T07:49:12;13.05;;;4.05;;
52798;SDS011;38667;42.872;74.622;2023-12-28T07:51:40;10.80;;;4.10;;
52798;SDS011;38667;42.872;74.622;2023-12-28T07:54:06;11.10;;;4.95;;
52798;SDS011;38667;42.872;74.622;2023-12-28T07:56:33;14.68;;;4.55;;
52798;SDS011;38667;42.872;74.622;2023-12-28T07:58:59;16.55;;;2.95;;
52798;SDS011;38667;42.872;74.622;2023-12-28T08:01:26;5.35;;;3.47;;
52798;SDS011;38667;42.872;74.622;2023-12-28T08:03:52;10.93;;;3.60;;
52798;SDS011;38667;42.872;74.622;2023-12-28T08:06:18;14.38;;;4.60;;
52798;SDS011;38667;42.872;74.622;2023-12-28T08:08:46;14.77;;;4.47;;
52798;SDS011;38667;42.872;74.622;2023-12-28T08:11:12;12.48;;;5.00;;
52798;SDS011;38667;42.872;74.622;2023-12-28T08:13:39;14.13;;;4.47;;
52798;SDS011;38667;42.872;74.622;2023-12-28T08:16:06;14.82;;;4.03;;
52798;SDS011;38667;42.872;74.622;2023-12-28T08:18:32;12.23;;;3.80;;
52798;SDS011;38667;42.872;74.622;2023-12-28T08:20:59;21.58;;;5.22;;
52798;SDS011;38667;42.872;74.622;2023-12-28T08:23:25;18.30;;;5.63;;
52798;SDS011;38667;42.872;74.622;2023-12-28T08:25:53;11.95;;;4.90;;
52798;SDS011;38667;42.872;74.622;2023-12-28T08:28:19;11.48;;;4.40;;
52798;SDS011;38667;42.872;74.622;2023-12-28T08:30:46;18.02;;;5.22;;
52798;SDS011;38667;42.872;74.622;2023-12-28T08:33:12;18.45;;;5.35;;
52798;SDS011;38667;42.872;74.622;2023-12-28T08:35:38;18.60;;;5.53;;
52798;SDS011;38667;42.872;74.622;2023-12-28T08:38:05;24.58;;;6.22;;
52798;SDS011;38667;42.872;74.622;2023-12-28T08:40:31;18.08;;;5.90;;
52798;SDS011;38667;42.872;74.622;2023-12-28T08:42:59;19.75;;;5.40;;
52798;SDS011;38667;42.872;74.622;2023-12-28T08:45:25;21.55;;;6.70;;
52798;SDS011;38667;42.872;74.622;2023-12-28T08:47:52;14.10;;;6.13;;
52798;SDS011;38667;42.872;74.622;2023-12-28T08:50:19;14.98;;;6.30;;
52798;SDS011;38667;42.872;74.622;2023-12-28T08:52:45;11.85;;;4.85;;
52798;SDS011;38667;42.872;74.622;2023-12-28T08:55:11;13.55;;;4.63;;
52798;SDS011;38667;42.872;74.622;2023-12-28T08:57:38;15.20;;;4.65;;
52798;SDS011;38667;42.872;74.622;2023-12-28T09:00:09;12.40;;;6.03;;
52798;SDS011;38667;42.872;74.622;2023-12-28T09:02:36;22.63;;;7.40;;
52798;SDS011;38667;42.872;74.622;2023-12-28T09:05:03;25.35;;;8.88;;
52798;SDS011;38667;42.872;74.622;2023-12-28T09:07:30;23.33;;;9.00;;
52798;SDS011;38667;42.872;74.622;2023-12-28T09:09:56;23.85;;;9.13;;
52798;SDS011;38667;42.872;74.622;2023-12-28T09:12:22;23.48;;;9.02;;
52798;SDS011;38667;42.872;74.622;2023-12-28T09:14:49;19.70;;;7.30;;
52798;SDS011;38667;42.872;74.622;2023-12-28T09:17:17;17.17;;;4.32;;
52798;SDS011;38667;42.872;74.622;2023-12-28T09:19:43;22.20;;;5.70;;
52798;SDS011;38667;42.872;74.622;2023-12-28T09:22:09;33.97;;;9.85;;
52798;SDS011;38667;42.872;74.622;2023-12-28T09:24:36;49.45;;;11.77;;
52798;SDS011;38667;42.872;74.622;2023-12-28T09:27:02;42.05;;;12.80;;
52798;SDS011;38667;42.872;74.622;2023-12-28T09:29:28;57.30;;;14.43;;
52798;SDS011;38667;42.872;74.622;2023-12-28T09:31:55;51.15;;;13.25;;
52798;SDS011;38667;42.872;74.622;2023-12-28T09:34:23;41.63;;;11.07;;
52798;SDS011;38667;42.872;74.622;2023-12-28T09:36:49;36.78;;;11.23;;
52798;SDS011;38667;42.872;74.622;2023-12-28T09:39:15;45.70;;;12.05;;
52798;SDS011;38667;42.872;74.622;2023-12-28T09:41:43;34.00;;;10.35;;
52798;SDS011;38667;42.872;74.622;2023-12-28T09:44:18;35.40;;;11.48;;
52798;SDS011;38667;42.872;74.622;2023-12-28T09:46:45;33.13;;;11.50;;
52798;SDS011;38667;42.872;74.622;2023-12-28T09:49:12;39.20;;;12.07;;
52798;SDS011;38667;42.872;74.622;2023-12-28T09:51:40;33.40;;;11.45;;
52798;SDS011;38667;42.872;74.622;2023-12-28T09:54:06;25.23;;;10.18;;
52798;SDS011;38667;42.872;74.622;2023-12-28T09:56:33;40.28;;;10.43;;
52798;SDS011;38667;42.872;74.622;2023-12-28T09:59:00;26.48;;;8.82;;
52798;SDS011;38667;42.872;74.622;2023-12-28T10:01:28;21.30;;;8.52;;
52798;SDS011;38667;42.872;74.622;2023-12-28T10:03:55;29.60;;;11.60;;
52798;SDS011;38667;42.872;74.622;2023-12-28T10:06:21;29.52;;;11.07;;
52798;SDS011;38667;42.872;74.622;2023-12-28T10:08:49;31.42;;;13.48;;
52798;SDS011;38667;42.872;74.622;2023-12-28T10:11:16;44.50;;;15.20;;
52798;SDS011;38667;42.872;74.622;2023-12-28T10:13:44;38.40;;;14.10;;
52798;SDS011;38667;42.872;74.622;2023-12-28T10:16:11;34.85;;;13.60;;
52798;SDS011;38667;42.872;74.622;2023-12-28T10:18:40;37.47;;;14.25;;
52798;SDS011;38667;42.872;74.622;2023-12-28T10:21:06;48.85;;;16.50;;
52798;SDS011;38667;42.872;74.622;2023-12-28T10:23:32;49.10;;;17.08;;
52798;SDS011;38667;42.872;74.622;2023-12-28T10:26:01;49.30;;;17.08;;
52798;SDS011;38667;42.872;74.622;2023-12-28T10:28:30;41.85;;;15.95;;
52798;SDS011;38667;42.872;74.622;2023-12-28T10:30:57;43.63;;;18.17;;
52798;SDS011;38667;42.872;74.622;2023-12-28T10:33:23;47.95;;;19.13;;
52798;SDS011;38667;42.872;74.622;2023-12-28T10:35:49;48.55;;;18.42;;
52798;SDS011;38667;42.872;74.622;2023-12-28T10:38:16;54.25;;;18.63;;
52798;SDS011;38667;42.872;74.622;2023-12-28T10:40:43;48.63;;;18.52;;
52798;SDS011;38667;42.872;74.622;2023-12-28T10:43:14;51.28;;;17.90;;
52798;SDS011;38667;42.872;74.622;2023-12-28T10:45:41;53.65;;;20.35;;
52798;SDS011;38667;42.872;74.622;2023-12-28T10:48:11;99.97;;;42.53;;
52798;SDS011;38667;42.872;74.622;2023-12-28T10:50:38;86.85;;;31.55;;
52798;SDS011;38667;42.872;74.622;2023-12-28T10:53:09;60.28;;;24.85;;
52798;SDS011;38667;42.872;74.622;2023-12-28T10:55:45;65.93;;;31.05;;
52798;SDS011;38667;42.872;74.622;2023-12-28T10:58:21;73.80;;;36.55;;
52798;SDS011;38667;42.872;74.622;2023-12-28T11:00:54;75.28;;;31.38;;
52798;SDS011;38667;42.872;74.622;2023-12-28T11:03:26;67.38;;;30.25;;
52798;SDS011;38667;42.872;74.622;2023-12-28T11:05:57;63.65;;;32.67;;
52798;SDS011;38667;42.872;74.622;2023-12-28T11:08:24;90.97;;;43.00;;
52798;SDS011;38667;42.872;74.622;2023-12-28T11:10:51;119.25;;;52.42;;
52798;SDS011;38667;42.872;74.622;2023-12-28T11:13:20;125.90;;;55.92;;
52798;SDS011;38667;42.872;74.622;2023-12-28T11:15:48;137.05;;;60.47;;
52798;SDS011;38667;42.872;74.622;2023-12-28T11:18:15;118.47;;;57.53;;
52798;SDS011;38667;42.872;74.622;2023-12-28T11:20:41;118.55;;;54.67;;
52798;SDS011;38667;42.872;74.622;2023-12-28T11:23:09;120.68;;;52.17;;
52798;SDS011;38667;42.872;74.622;2023-12-28T11:25:36;116.60;;;52.60;;
52798;SDS011;38667;42.872;74.622;2023-12-28T11:28:08;117.25;;;54.38;;
52798;SDS011;38667;42.872;74.622;2023-12-28T11:30:37;117.97;;;54.88;;
52798;SDS011;38667;42.872;74.622;2023-12-28T11:33:04;114.45;;;52.85;;
52798;SDS011;38667;42.872;74.622;2023-12-28T11:35:33;146.25;;;68.32;;
52798;SDS011;38667;42.872;74.622;2023-12-28T11:38:00;158.52;;;70.97;;
52798;SDS011;38667;42.872;74.622;2023-12-28T11:40:28;137.45;;;60.95;;
52798;SDS011;38667;42.872;74.622;2023-12-28T11:42:54;141.00;;;65.20;;
52798;SDS011;38667;42.872;74.622;2023-12-28T11:45:22;133.00;;;61.13;;
52798;SDS011;38667;42.872;74.622;2023-12-28T11:48:00;306.15;;;117.38;;
52798;SDS011;38667;42.872;74.622;2023-12-28T11:50:26;296.52;;;116.97;;
52798;SDS011;38667;42.872;74.622;2023-12-28T11:52:53;278.77;;;112.53;;
52798;SDS011;38667;42.872;74.622;2023-12-28T11:55:20;207.10;;;85.85;;
52798;SDS011;38667;42.872;74.622;2023-12-28T11:57:47;217.57;;;89.32;;
52798;SDS011;38667;42.872;74.622;2023-12-28T12:00:13;163.85;;;70.32;;
52798;SDS011;38667;42.872;74.622;2023-12-28T12:02:43;182.43;;;78.75;;
52798;SDS011;38667;42.872;74.622;2023-12-28T12:05:11;182.38;;;73.95;;
52798;SDS011;38667;42.872;74.622;2023-12-28T12:07:37;246.13;;;113.65;;
52798;SDS011;38667;42.872;74.622;2023-12-28T12:10:04;290.92;;;141.35;;
52798;SDS011;38667;42.872;74.622;2023-12-28T12:12:31;298.38;;;132.20;;
52798;SDS011;38667;42.872;74.622;2023-12-28T12:14:57;244.40;;;117.90;;
52798;SDS011;38667;42.872;74.622;2023-12-28T12:17:25;243.13;;;110.70;;
52798;SDS011;38667;42.872;74.622;2023-12-28T12:19:52;215.13;;;97.80;;
52798;SDS011;38667;42.872;74.622;2023-12-28T12:22:22;194.63;;;86.25;;
52798;SDS011;38667;42.872;74.622;2023-12-28T12:24:49;233.50;;;102.45;;
52798;SDS011;38667;42.872;74.622;2023-12-28T12:27:17;221.18;;;111.05;;
52798;SDS011;38667;42.872;74.622;2023-12-28T12:29:43;190.30;;;94.05;;
52798;SDS011;38667;42.872;74.622;2023-12-28T12:32:10;204.35;;;95.18;;
52798;SDS011;38667;42.872;74.622;2023-12-28T12:34:36;364.77;;;180.18;;
52798;SDS011;38667;42.872;74.622;2023-12-28T12:37:04;175.52;;;92.03;;
52798;SDS011;38667;42.872;74.622;2023-12-28T12:39:32;176.35;;;86.15;;
52798;SDS011;38667;42.872;74.622;2023-12-28T12:41:58;199.50;;;97.85;;
52798;SDS011;38667;42.872;74.622;2023-12-28T12:44:25;213.95;;;101.68;;
52798;SDS011;38667;42.872;74.622;2023-12-28T12:46:56;235.13;;;106.43;;
52798;SDS011;38667;42.872;74.622;2023-12-28T12:49:22;232.63;;;109.63;;
52798;SDS011;38667;42.872;74.622;2023-12-28T12:51:49;242.02;;;110.78;;
52798;SDS011;38667;42.872;74.622;2023-12-28T12:54:16;220.82;;;103.95;;
52798;SDS011;38667;42.872;74.622;2023-12-28T12:56:45;481.10;;;239.63;;
52798;SDS011;38667;42.872;74.622;2023-12-28T12:59:11;413.15;;;200.95;;
52798;SDS011;38667;42.872;74.622;2023-12-28T13:01:37;364.45;;;155.60;;
52798;SDS011;38667;42.872;74.622;2023-12-28T13:04:05;294.35;;;133.63;;
52798;SDS011;38667;42.872;74.622;2023-12-28T13:06:32;297.80;;;132.50;;
52798;SDS011;38667;42.872;74.622;2023-12-28T13:08:58;321.30;;;148.00;;
52798;SDS011;38667;42.872;74.622;2023-12-28T13:11:25;245.95;;;110.30;;
52798;SDS011;38667;42.872;74.622;2023-12-28T13:13:53;214.55;;;93.68;;
52798;SDS011;38667;42.872;74.622;2023-12-28T13:16:20;170.07;;;75.68;;
52798;SDS011;38667;42.872;74.622;2023-12-28T13:18:46;89.05;;;34.92;;
52798;SDS011;38667;42.872;74.622;2023-12-28T13:21:12;54.30;;;24.33;;
52798;SDS011;38667;42.872;74.622;2023-12-28T13:23:39;80.78;;;31.27;;
52798;SDS011;38667;42.872;74.622;2023-12-28T13:26:05;62.38;;;26.75;;
52798;SDS011;38667;42.872;74.622;2023-12-28T13:28:32;31.92;;;10.77;;
52798;SDS011;38667;42.872;74.622;2023-12-28T13:30:59;32.25;;;11.30;;
52798;SDS011;38667;42.872;74.622;2023-12-28T13:33:26;23.65;;;8.80;;
52798;SDS011;38667;42.872;74.622;2023-12-28T13:35:52;27.67;;;9.68;;
52798;SDS011;38667;42.872;74.622;2023-12-28T13:38:18;28.73;;;11.07;;
52798;SDS011;38667;42.872;74.622;2023-12-28T13:40:45;30.40;;;13.30;;
52798;SDS011;38667;42.872;74.622;2023-12-28T13:43:11;25.27;;;10.18;;
52798;SDS011;38667;42.872;74.622;2023-12-28T13:45:37;28.50;;;10.35;;
52798;SDS011;38667;42.872;74.622;2023-12-28T13:48:06;32.42;;;10.93;;
52798;SDS011;38667;42.872;74.622;2023-12-28T13:50:33;23.02;;;11.30;;
52798;SDS011;38667;42.872;74.622;2023-12-28T13:52:59;19.58;;;9.15;;
52798;SDS011;38667;42.872;74.622;2023-12-28T13:55:25;22.50;;;8.88;;
52798;SDS011;38667;42.872;74.622;2023-12-28T13:57:52;18.10;;;7.53;;
52798;SDS011;38667;42.872;74.622;2023-12-28T14:00:18;20.88;;;6.72;;
52798;SDS011;38667;42.872;74.622;2023-12-28T14:02:44;14.18;;;6.18;;
52798;SDS011;38667;42.872;74.622;2023-12-28T14:05:13;11.15;;;7.00;;
52798;SDS011;38667;42.872;74.622;2023-12-28T14:07:39;15.18;;;6.43;;
52798;SDS011;38667;42.872;74.622;2023-12-28T14:10:06;16.63;;;5.82;;